createdAt,value
2022-08-12T00:02:02.028Z,23.57
2022-08-12T00:04:31.290Z,23.43
2022-08-12T00:07:20.235Z,23.15
2022-08-12T00:10:07.921Z,23.25
2022-08-12T00:12:56.243Z,23.29
2022-08-12T00:15:46.191Z,23.39
2022-08-12T00:18:33.307Z,23.18
2022-08-12T00:21:20.650Z,23.10
2022-08-12T00:24:08.527Z,23.25
2022-08-12T00:26:56.692Z,23.03
2022-08-12T00:29:47.810Z,23.09
2022-08-12T00:32:37.364Z,23.19
2022-08-12T00:35:36.446Z,23.15
2022-08-12T00:38:24.348Z,23.12
2022-08-12T00:41:13.146Z,23.06
2022-08-12T00:43:44.948Z,23.04
2022-08-12T00:46:32.914Z,23.05
2022-08-12T00:49:05.553Z,23.03
2022-08-12T00:51:57.019Z,23.05
2022-08-12T00:54:26.974Z,22.98
2022-08-12T00:57:05.687Z,23.01
2022-08-12T00:59:37.318Z,22.94
2022-08-12T01:02:11.412Z,22.94
2022-08-12T01:05:02.590Z,22.81
2022-08-12T01:07:52.653Z,22.90
2022-08-12T01:10:39.912Z,23.00
2022-08-12T01:13:19.407Z,22.90
2022-08-12T01:15:52.604Z,22.81
2022-08-12T01:18:24.043Z,22.69
2022-08-12T01:21:07.769Z,22.73
2022-08-12T01:24:23.025Z,22.81
2022-08-12T01:26:55.962Z,22.73
2022-08-12T01:29:28.579Z,22.83
2022-08-12T01:32:11.695Z,22.88
2022-08-12T01:34:52.213Z,22.86
2022-08-12T01:37:25.809Z,22.79
2022-08-12T01:40:34.372Z,22.70
2022-08-12T01:42:49.651Z,22.65
2022-08-12T01:45:25.002Z,22.66
2022-08-12T01:48:06.236Z,22.77
2022-08-12T01:50:51.954Z,22.70
2022-08-12T01:53:27.759Z,22.63
2022-08-12T01:55:58.722Z,22.61
2022-08-12T01:58:55.060Z,22.64
2022-08-12T02:01:30.549Z,22.54
2022-08-12T02:04:32.004Z,22.46
2022-08-12T02:07:30.822Z,22.51
2022-08-12T02:10:50.997Z,22.54
2022-08-12T02:13:43.807Z,22.63
2022-08-12T02:16:30.444Z,22.52
2022-08-12T02:19:21.887Z,22.50
2022-08-12T02:22:01.776Z,22.44
2022-08-12T02:24:38.656Z,22.41
2022-08-12T02:27:10.200Z,22.39
2022-08-12T02:29:41.290Z,22.45
2022-08-12T02:32:14.565Z,22.34
2022-08-12T02:34:45.881Z,22.31
2022-08-12T02:37:16.925Z,22.26
2022-08-12T02:39:50.642Z,22.34
2022-08-12T02:42:23.708Z,22.18
2022-08-12T02:44:57.764Z,22.12
2022-08-12T02:47:58.317Z,22.09
2022-08-12T02:50:30.089Z,22.24
2022-08-12T02:53:01.265Z,22.19
2022-08-12T02:55:36.262Z,22.14
2022-08-12T02:58:12.005Z,22.04
2022-08-12T03:00:45.654Z,22.01
2022-08-12T03:03:17.239Z,22.13
2022-08-12T03:05:52.731Z,22.00
2022-08-12T03:08:31.417Z,21.71
2022-08-12T03:11:11.873Z,21.79
2022-08-12T03:13:53.361Z,21.88
2022-08-12T03:16:24.856Z,21.94
2022-08-12T03:18:56.566Z,21.99
2022-08-12T03:21:59.921Z,21.96
2022-08-12T03:24:18.975Z,21.95
2022-08-12T03:26:49.239Z,21.99
2022-08-12T03:29:22.748Z,22.04
2022-08-12T03:31:55.940Z,21.75
2022-08-12T03:34:33.923Z,21.87
2022-08-12T03:37:06.275Z,21.70
2022-08-12T03:39:44.687Z,21.81
2022-08-12T03:42:35.556Z,21.85
2022-08-12T03:45:51.523Z,21.82
2022-08-12T03:48:39.959Z,21.73
2022-08-12T03:51:30.120Z,21.70
2022-08-12T03:54:19.351Z,21.66
2022-08-12T03:57:06.676Z,21.65
2022-08-12T03:59:53.918Z,21.80
2022-08-12T04:02:25.792Z,21.67
2022-08-12T04:04:56.446Z,21.74
2022-08-12T04:07:30.097Z,21.69
2022-08-12T04:10:01.148Z,21.68
2022-08-12T04:12:49.278Z,21.85
2022-08-12T04:15:20.819Z,21.95
2022-08-12T04:18:06.475Z,22.01
2022-08-12T04:20:38.031Z,22.06
2022-08-12T04:23:12.413Z,21.97
2022-08-12T04:25:47.846Z,21.97
2022-08-12T04:28:17.710Z,21.98
2022-08-12T04:30:47.594Z,22.01
2022-08-12T04:33:19.262Z,22.13
2022-08-12T04:35:49.684Z,22.01
2022-08-12T04:38:22.305Z,22.13
2022-08-12T04:40:52.355Z,22.14
2022-08-12T04:43:58.938Z,22.13
2022-08-12T04:46:12.409Z,22.13
2022-08-12T04:48:42.611Z,22.23
2022-08-12T04:51:12.605Z,22.21
2022-08-12T04:53:44.640Z,22.16
2022-08-12T04:56:15.333Z,22.16
2022-08-12T04:58:50.661Z,22.32
2022-08-12T05:01:22.640Z,22.27
2022-08-12T05:03:53.244Z,22.31
2022-08-12T05:06:26.798Z,22.45
2022-08-12T05:08:59.851Z,22.40
2022-08-12T05:11:29.957Z,22.73
2022-08-12T05:14:01.770Z,22.89
2022-08-12T05:16:34.050Z,22.90
2022-08-12T05:19:06.291Z,23.01
2022-08-12T05:21:48.717Z,23.03
2022-08-12T05:24:19.976Z,23.04
2022-08-12T05:26:50.004Z,23.08
2022-08-12T05:30:07.424Z,23.21
2022-08-12T05:32:10.723Z,23.16
2022-08-12T05:34:40.784Z,23.25
2022-08-12T05:37:10.618Z,23.35
2022-08-12T05:39:42.136Z,23.22
2022-08-12T05:42:12.217Z,23.39
2022-08-12T05:44:42.133Z,23.40
2022-08-12T05:47:14.756Z,23.40
2022-08-12T05:49:44.701Z,23.50
2022-08-12T05:52:14.905Z,23.57
2022-08-12T05:54:57.547Z,23.46
2022-08-12T05:57:28.058Z,23.60
2022-08-12T05:59:58.045Z,23.76
2022-08-12T06:02:28.016Z,23.93
2022-08-12T06:05:00.395Z,23.93
2022-08-12T06:08:00.661Z,24.09
2022-08-12T06:10:32.155Z,24.26
2022-08-12T06:13:03.660Z,24.30
2022-08-12T06:15:37.866Z,24.46
2022-08-12T06:18:13.954Z,24.27
2022-08-12T06:20:49.155Z,24.45
2022-08-12T06:23:28.973Z,24.52
2022-08-12T06:26:00.489Z,24.51
2022-08-12T06:28:31.211Z,24.61
2022-08-12T06:33:57.713Z,24.94
2022-08-12T06:36:41.877Z,24.92
2022-08-12T06:39:14.506Z,25.13
2022-08-12T06:42:32.462Z,25.13
2022-08-12T06:44:55.819Z,25.29
2022-08-12T06:47:26.604Z,25.16
2022-08-12T06:49:56.586Z,25.31
2022-08-12T06:52:26.560Z,25.31
2022-08-12T06:54:58.582Z,25.32
2022-08-12T06:58:06.986Z,25.44
2022-08-12T07:00:22.592Z,25.60
2022-08-12T07:03:16.608Z,25.60
2022-08-12T07:05:53.673Z,25.71
2022-08-12T07:08:25.643Z,25.67
2022-08-12T07:10:59.423Z,25.76
2022-08-12T07:14:12.727Z,25.69
2022-08-12T07:16:49.060Z,25.69
2022-08-12T07:19:19.654Z,25.76
2022-08-12T07:22:01.744Z,25.62
2022-08-12T07:24:32.560Z,25.99
2022-08-12T07:27:02.514Z,25.96
2022-08-12T07:29:58.099Z,25.98
2022-08-12T07:32:25.663Z,25.85
2022-08-12T07:34:59.483Z,25.93
2022-08-12T07:37:29.409Z,25.97
2022-08-12T07:40:01.068Z,26.06
2022-08-12T07:42:31.444Z,26.04
2022-08-12T07:45:04.783Z,26.19
2022-08-12T07:47:34.891Z,26.17
2022-08-12T07:50:09.375Z,26.22
2022-08-12T07:52:43.247Z,26.24
2022-08-12T07:55:14.193Z,26.35
2022-08-12T07:57:53.363Z,26.36
2022-08-12T08:00:25.392Z,26.44
2022-08-12T08:02:55.437Z,26.53
2022-08-12T08:05:28.349Z,26.61
2022-08-12T08:08:02.488Z,26.71
2022-08-12T08:10:33.493Z,26.76
2022-08-12T08:13:05.277Z,26.80
2022-08-12T08:16:01.832Z,26.90
2022-08-12T08:18:30.253Z,27.06
2022-08-12T08:21:06.480Z,27.12
2022-08-12T08:23:57.584Z,27.09
2022-08-12T08:26:29.835Z,26.91
2022-08-12T08:28:59.982Z,27.19
2022-08-12T08:31:31.325Z,27.30
2022-08-12T08:34:49.015Z,27.17
2022-08-12T08:36:52.602Z,27.39
2022-08-12T08:39:22.801Z,27.41
2022-08-12T08:42:20.507Z,27.36
2022-08-12T08:44:58.494Z,27.41
2022-08-12T08:47:29.887Z,27.41
2022-08-12T08:50:03.146Z,27.42
2022-08-12T08:52:39.047Z,27.58
2022-08-12T08:55:11.568Z,27.14
2022-08-12T08:57:44.689Z,27.58
2022-08-12T09:00:16.534Z,27.74
2022-08-12T09:02:59.206Z,27.65
2022-08-12T09:06:01.814Z,27.68
2022-08-12T09:08:27.617Z,27.69
2022-08-12T09:12:07.059Z,27.67
2022-08-12T09:17:00.149Z,27.85
2022-08-12T09:19:31.563Z,27.87
2022-08-12T09:22:03.221Z,28.01
2022-08-12T09:24:35.759Z,27.99
2022-08-12T09:27:07.122Z,27.86
2022-08-12T09:30:10.264Z,27.83
2022-08-12T09:33:04.752Z,28.03
2022-08-12T09:35:28.475Z,27.99
2022-08-12T09:38:00.997Z,27.89
2022-08-12T09:40:57.114Z,27.58
2022-08-12T09:43:53.585Z,27.86
2022-08-12T09:46:25.711Z,27.95
2022-08-12T09:48:57.318Z,28.01
2022-08-12T09:51:37.500Z,27.99
2022-08-12T09:54:32.843Z,28.18
2022-08-12T09:58:07.551Z,28.35
2022-08-12T10:00:17.600Z,28.42
2022-08-12T10:03:02.753Z,28.42
2022-08-12T10:06:26.729Z,28.47
2022-08-12T10:08:30.553Z,28.46
2022-08-12T10:11:20.648Z,28.59
2022-08-12T10:13:53.702Z,28.55
2022-08-12T10:16:28.445Z,28.59
2022-08-12T10:19:01.388Z,28.43
2022-08-12T10:21:38.774Z,28.66
2022-08-12T10:24:12.505Z,28.68
2022-08-12T10:27:05.645Z,28.65
2022-08-12T10:30:38.840Z,28.57
2022-08-12T10:32:44.906Z,28.52
2022-08-12T10:35:17.445Z,28.63
2022-08-12T10:38:38.184Z,28.81
2022-08-12T10:41:00.684Z,28.88
2022-08-12T10:43:55.658Z,28.91
2022-08-12T10:46:30.698Z,28.78
2022-08-12T10:49:06.229Z,28.68
2022-08-12T10:52:32.863Z,28.60
2022-08-12T10:54:43.368Z,28.66
2022-08-12T10:57:18.361Z,28.79
2022-08-12T11:00:32.483Z,28.77
2022-08-12T11:04:35.932Z,28.81
2022-08-12T11:07:09.092Z,28.72
2022-08-12T11:08:42.866Z,29.00
2022-08-12T11:12:36.913Z,29.10
2022-08-12T11:14:34.092Z,29.14
2022-08-12T11:17:33.982Z,28.97
2022-08-12T11:19:50.169Z,29.16
2022-08-12T11:22:24.170Z,29.06
2022-08-12T11:24:55.414Z,29.14
2022-08-12T11:27:25.588Z,29.32
2022-08-12T11:30:05.923Z,29.30
2022-08-12T11:32:54.680Z,29.28
2022-08-12T11:35:29.621Z,29.28
2022-08-12T11:38:01.746Z,29.16
2022-08-12T11:40:32.815Z,29.22
2022-08-12T11:43:19.702Z,29.18
2022-08-12T11:45:53.207Z,29.27
2022-08-12T11:48:27.382Z,29.25
2022-08-12T11:51:01.474Z,29.42
2022-08-12T11:53:56.977Z,29.43
2022-08-12T11:56:21.681Z,29.36
2022-08-12T12:02:05.121Z,29.43
2022-08-12T12:04:35.776Z,29.39
2022-08-12T12:07:07.388Z,29.39
2022-08-12T12:09:53.049Z,29.44
2022-08-12T12:12:25.185Z,29.47
2022-08-12T12:14:56.438Z,29.60
2022-08-12T12:17:38.033Z,29.65
2022-08-12T12:20:11.847Z,29.63
2022-08-12T12:22:45.165Z,29.55
2022-08-12T12:25:16.248Z,29.65
2022-08-12T12:28:04.328Z,29.71
2022-08-12T12:30:37.313Z,29.53
2022-08-12T12:33:10.991Z,29.63
2022-08-12T12:36:19.746Z,29.27
2022-08-12T12:38:38.114Z,29.48
2022-08-12T12:41:09.864Z,29.49
2022-08-12T12:44:03.718Z,29.44
2022-08-12T12:46:34.360Z,29.62
2022-08-12T12:49:06.757Z,29.51
2022-08-12T12:52:17.147Z,29.54
2022-08-12T12:54:31.061Z,29.38
2022-08-12T12:57:02.152Z,29.47
2022-08-12T12:59:33.814Z,29.49
2022-08-12T13:02:31.566Z,29.66
2022-08-12T13:05:04.736Z,29.76
2022-08-12T13:07:49.261Z,29.62
2022-08-12T13:10:25.588Z,29.67
2022-08-12T13:14:07.925Z,29.65
2022-08-12T13:15:53.943Z,29.77
2022-08-12T13:18:31.533Z,29.72
2022-08-12T13:21:03.103Z,29.62
2022-08-12T13:23:36.369Z,29.60
2022-08-12T13:26:14.263Z,29.61
2022-08-12T13:28:53.138Z,29.65
2022-08-12T13:31:27.260Z,29.55
2022-08-12T13:34:34.237Z,29.63
2022-08-12T13:36:48.734Z,29.64
2022-08-12T13:39:20.594Z,29.62
2022-08-12T13:41:51.273Z,29.56
2022-08-12T13:44:23.940Z,29.72
2022-08-12T13:46:58.379Z,29.66
2022-08-12T13:49:53.753Z,29.79
2022-08-12T13:52:35.436Z,29.80
2022-08-12T13:55:06.670Z,29.61
2022-08-12T13:57:44.682Z,29.89
2022-08-12T14:00:17.325Z,29.88
2022-08-12T14:02:47.601Z,29.80
2022-08-12T14:05:30.071Z,29.85
2022-08-12T14:08:11.334Z,29.92
2022-08-12T14:10:50.996Z,29.88
2022-08-12T14:14:04.260Z,29.76
2022-08-12T14:16:37.347Z,29.60
2022-08-12T14:19:22.203Z,29.56
2022-08-12T14:21:59.268Z,29.58
2022-08-12T14:24:40.320Z,29.65
2022-08-12T14:27:13.285Z,29.70
2022-08-12T14:30:04.781Z,29.63
2022-08-12T14:32:36.660Z,29.57
2022-08-12T14:35:09.491Z,29.61
2022-08-12T14:37:56.235Z,29.60
2022-08-12T14:40:31.132Z,29.62
2022-08-12T14:43:02.795Z,29.64
2022-08-12T14:45:44.430Z,29.67
2022-08-12T14:48:24.531Z,29.66
2022-08-12T14:52:16.011Z,29.60
2022-08-12T14:54:55.817Z,29.60
2022-08-12T14:59:56.358Z,29.53
2022-08-12T15:02:29.601Z,29.47
2022-08-12T15:05:03.663Z,29.38
2022-08-12T15:07:49.020Z,29.42
2022-08-12T15:10:31.874Z,29.37
2022-08-12T15:13:07.283Z,29.30
2022-08-12T15:15:44.281Z,29.25
2022-08-12T15:18:20.962Z,29.32
2022-08-12T15:20:54.764Z,29.28
2022-08-12T15:23:29.026Z,29.26
2022-08-12T15:26:05.061Z,29.15
2022-08-12T15:28:37.029Z,29.14
2022-08-12T15:31:28.052Z,29.07
2022-08-12T15:34:00.854Z,28.93
2022-08-12T15:36:55.083Z,29.06
2022-08-12T15:39:22.191Z,29.03
2022-08-12T15:41:55.471Z,28.98
2022-08-12T15:44:37.941Z,28.96
2022-08-12T15:47:11.684Z,28.91
2022-08-12T15:49:55.051Z,28.86
2022-08-12T15:52:31.250Z,28.71
2022-08-12T15:55:06.573Z,28.77
2022-08-12T15:57:53.542Z,28.60
2022-08-12T16:00:33.024Z,28.62
2022-08-12T16:03:13.634Z,28.72
2022-08-12T16:06:11.987Z,28.72
2022-08-12T16:08:39.685Z,28.65
2022-08-12T16:11:15.198Z,28.44
2022-08-12T16:13:48.036Z,28.60
2022-08-12T16:16:23.168Z,28.78
2022-08-12T16:18:59.561Z,28.73
2022-08-12T16:21:52.746Z,28.55
2022-08-12T16:24:23.235Z,28.63
2022-08-12T16:26:54.225Z,28.55
2022-08-12T16:29:38.674Z,28.54
2022-08-12T16:32:31.095Z,28.61
2022-08-12T16:35:05.873Z,28.58
2022-08-12T16:38:28.072Z,28.53
2022-08-12T16:40:29.092Z,28.56
2022-08-12T16:43:04.710Z,28.44
2022-08-12T16:46:04.968Z,28.41
2022-08-12T16:48:38.755Z,28.36
2022-08-12T16:51:11.841Z,28.33
2022-08-12T16:53:45.216Z,28.05
2022-08-12T16:56:16.859Z,28.28
2022-08-12T16:58:48.229Z,28.22
2022-08-12T17:01:19.660Z,28.17
2022-08-12T17:04:08.524Z,28.07
2022-08-12T17:06:43.429Z,28.02
2022-08-12T17:09:17.412Z,27.97
2022-08-12T17:11:50.283Z,27.94
2022-08-12T17:14:23.443Z,27.90
2022-08-12T17:16:55.971Z,27.89
2022-08-12T17:20:30.678Z,27.86
2022-08-12T17:22:22.018Z,27.83
2022-08-12T17:24:55.471Z,27.79
2022-08-12T17:27:30.732Z,27.71
2022-08-12T17:30:05.152Z,27.68
2022-08-12T17:32:39.712Z,27.67
2022-08-12T17:35:37.532Z,27.66
2022-08-12T17:38:13.732Z,27.59
2022-08-12T17:40:47.526Z,27.43
2022-08-12T17:43:52.044Z,27.49
2022-08-12T17:46:12.784Z,27.45
2022-08-12T17:48:55.316Z,27.40
2022-08-12T17:51:31.595Z,27.39
2022-08-12T17:54:11.224Z,27.34
2022-08-12T17:56:43.590Z,27.25
2022-08-12T17:59:14.434Z,27.27
2022-08-12T18:02:06.341Z,27.23
2022-08-12T18:04:36.465Z,27.15
2022-08-12T18:07:08.526Z,27.15
2022-08-12T18:09:41.049Z,27.14
2022-08-12T18:12:34.780Z,27.10
2022-08-12T18:15:08.955Z,27.04
2022-08-12T18:17:41.039Z,27.04
2022-08-12T18:20:15.539Z,27.09
2022-08-12T18:22:55.675Z,26.95
2022-08-12T18:26:15.643Z,27.06
2022-08-12T18:28:31.802Z,27.03
2022-08-12T18:31:03.865Z,26.96
2022-08-12T18:33:41.552Z,26.97
2022-08-12T18:36:22.537Z,26.95
2022-08-12T18:38:59.722Z,26.89
2022-08-12T18:41:34.439Z,26.85
2022-08-12T18:44:09.778Z,26.91
2022-08-12T18:46:54.130Z,26.90
2022-08-12T18:49:32.061Z,26.81
2022-08-12T18:52:08.066Z,26.62
2022-08-12T18:54:49.191Z,26.67
2022-08-12T18:58:06.522Z,26.62
2022-08-12T19:00:20.996Z,26.56
2022-08-12T19:02:53.798Z,26.48
2022-08-12T19:05:52.909Z,26.37
2022-08-12T19:08:16.399Z,26.36
2022-08-12T19:10:51.131Z,26.34
2022-08-12T19:13:42.945Z,26.31
2022-08-12T19:16:21.485Z,26.24
2022-08-12T19:18:55.248Z,26.19
2022-08-12T19:21:25.346Z,26.13
2022-08-12T19:24:09.585Z,26.06
2022-08-12T19:26:43.473Z,26.07
2022-08-12T19:29:13.962Z,26.06
2022-08-12T19:31:57.772Z,26.04
2022-08-12T19:37:38.348Z,25.95
2022-08-12T19:40:20.316Z,25.92
2022-08-12T19:43:13.383Z,25.83
2022-08-12T19:45:51.576Z,25.90
2022-08-12T19:48:23.818Z,25.85
2022-08-12T19:50:55.603Z,25.80
2022-08-12T19:53:27.521Z,25.81
2022-08-12T19:55:58.688Z,25.66
2022-08-12T19:58:29.960Z,25.64
2022-08-12T20:01:00.362Z,25.72
2022-08-12T20:03:38.432Z,25.75
2022-08-12T20:06:13.803Z,25.68
2022-08-12T20:08:55.609Z,25.64
2022-08-12T20:12:15.111Z,25.58
2022-08-12T20:14:20.963Z,25.56
2022-08-12T20:16:57.812Z,25.46
2022-08-12T20:20:00.989Z,25.53
2022-08-12T20:22:29.489Z,25.57
2022-08-12T20:25:09.085Z,25.45
2022-08-12T20:28:04.328Z,25.41
2022-08-12T20:30:53.184Z,25.32
2022-08-12T20:33:50.409Z,25.25
2022-08-12T20:36:42.923Z,25.15
2022-08-12T20:39:37.490Z,25.16
2022-08-12T20:42:07.241Z,25.08
2022-08-12T20:44:40.551Z,25.17
2022-08-12T20:47:19.785Z,25.22
2022-08-12T20:49:55.350Z,25.16
2022-08-12T20:52:29.925Z,25.09
2022-08-12T20:55:01.990Z,25.14
2022-08-12T20:57:38.506Z,25.10
2022-08-12T21:00:18.092Z,25.14
2022-08-12T21:03:13.690Z,25.06
2022-08-12T21:06:12.668Z,25.09
2022-08-12T21:08:43.981Z,25.01
2022-08-12T21:11:13.874Z,24.93
2022-08-12T21:13:44.214Z,24.91
2022-08-12T21:16:14.896Z,24.88
2022-08-12T21:19:02.983Z,24.82
2022-08-12T21:21:47.059Z,24.87
2022-08-12T21:24:21.919Z,24.78
2022-08-12T21:27:03.887Z,24.77
2022-08-12T21:29:50.094Z,24.44
2022-08-12T21:32:39.366Z,24.83
2022-08-12T21:35:20.430Z,24.79
2022-08-12T21:37:54.793Z,24.86
2022-08-12T21:40:37.189Z,24.90
2022-08-12T21:43:19.679Z,24.81
2022-08-12T21:46:00.345Z,24.94
2022-08-12T21:48:30.791Z,24.93
2022-08-12T21:51:02.001Z,24.97
2022-08-12T21:54:06.404Z,24.73
2022-08-12T21:56:34.349Z,24.85
2022-08-12T21:59:13.613Z,24.92
2022-08-12T22:01:48.989Z,24.82
2022-08-12T22:04:37.174Z,24.77
2022-08-12T22:07:08.593Z,24.79
2022-08-12T22:09:43.554Z,24.80
2022-08-12T22:12:31.681Z,24.73
2022-08-12T22:15:03.866Z,24.82
2022-08-12T22:17:49.552Z,24.85
2022-08-12T22:20:21.948Z,24.76
2022-08-12T22:22:53.941Z,24.61
2022-08-12T22:25:27.874Z,24.65
2022-08-12T22:28:14.457Z,24.66
2022-08-12T22:31:02.929Z,24.52
2022-08-12T22:33:54.057Z,24.28
2022-08-12T22:36:29.220Z,24.25
2022-08-12T22:39:00.946Z,24.26
2022-08-12T22:41:48.128Z,24.26
2022-08-12T22:44:54.693Z,24.29
2022-08-12T22:47:55.458Z,24.21
2022-08-12T22:50:28.855Z,24.30
2022-08-12T22:53:15.311Z,24.40
2022-08-12T22:56:06.089Z,24.30
2022-08-12T22:58:40.500Z,24.20
2022-08-12T23:01:21.080Z,24.13
2022-08-12T23:03:53.938Z,23.91
2022-08-12T23:06:26.909Z,23.97
2022-08-12T23:08:57.104Z,24.07
2022-08-12T23:11:36.266Z,24.16
2022-08-12T23:14:12.730Z,23.94
2022-08-12T23:16:45.243Z,24.01
2022-08-12T23:19:23.363Z,23.94
2022-08-12T23:22:05.397Z,23.77
2022-08-12T23:24:55.854Z,23.81
2022-08-12T23:27:52.362Z,23.75
2022-08-12T23:30:31.028Z,23.85
2022-08-12T23:33:01.561Z,23.93
2022-08-12T23:35:53.645Z,23.87
2022-08-12T23:38:30.354Z,23.78
2022-08-12T23:41:05.805Z,23.76
2022-08-12T23:43:39.951Z,23.52
2022-08-12T23:46:12.431Z,23.70
2022-08-12T23:48:51.651Z,23.64
2022-08-12T23:51:24.621Z,23.69
2022-08-12T23:54:00.195Z,23.77
2022-08-12T23:56:33.605Z,23.46
2022-08-12T23:59:07.671Z,23.18
